Time;durP1;ratioP1;P1;durP2;ratioP2;P2;SDS_P1;SDS_P2;PMS_P1;PMS_P2;Temp;Humidity;BMP_temperature;BMP_pressure;BME280_temperature;BME280_humidity;BME280_pressure;Samples;Min_cycle;Max_cycle;Signal;HPM_P1;HPM_P2
2024/04/12 00:01:12;;;;;;;;;;;;;;;;;;5472047;25;19936;-61
2024/04/12 00:03:37;;;;;;;;;;;;;;;;;;5481099;26;19977;-62
2024/04/12 00:06:06;;;;;;;;;;;;;;;;;;5480285;25;19928;-61
2024/04/12 00:08:31;;;;;;;;;;;;;;;;;;5476308;25;19929;-61
2024/04/12 00:10:56;;;;;;;;;;;;;;;;;;5481373;26;19928;-61
2024/04/12 00:13:21;;;;;;;;;;;;;;;;;;5481314;26;19932;-61
2024/04/12 00:15:47;;;;;;;;;;;;;;;;;;5468539;25;20190;-61
2024/04/12 00:18:13;;;;;;;;;;;;;;;;;;5480249;25;19928;-60
2024/04/12 00:20:38;;;;;;;;;;;;;;;;;;5493370;25;19927;-60
2024/04/12 00:23:03;;;;;;;;;;;;;;;;;;5477958;26;20531;-62
2024/04/12 00:25:28;;;;;;;;;;;;;;;;;;5474164;25;19950;-62
2024/04/12 00:27:54;;;;;;;;;;;;;;;;;;5480878;25;19928;-62
2024/04/12 00:30:38;;;;;;;;;;;;;;;;;;5474504;25;19939;-62
2024/04/12 00:33:09;;;;;;;;;;;;;;;;;;5472998;26;19928;-62
2024/04/12 00:35:34;;;;;;;;;;;;;;;;;;5486990;25;19927;-61
2024/04/12 00:38:03;;;;;;;;;;;;;;;;;;5469799;26;19936;-61
2024/04/12 00:40:29;;;;;;;;;;;;;;;;;;5473611;25;20004;-63
2024/04/12 00:42:57;;;;;;;;;;;;;;;;;;5465972;26;19936;-62
2024/04/12 00:45:39;;;;;;;;;;;;;;;;;;5479967;25;19935;-62
2024/04/12 00:48:07;;;;;;;;;;;;;;;;;;5467187;25;20250;-62
2024/04/12 00:50:34;;;;;;;;;;;;;;;;;;5478321;26;20317;-62
2024/04/12 00:53:03;;;;;;;;;;;;;;;;;;5479775;26;19928;-62
2024/04/12 00:55:32;;;;;;;;;;;;;;;;;;5465701;25;20401;-63
2024/04/12 00:57:59;;;;;;;;;;;;;;;;;;5470175;25;20483;-62
2024/04/12 01:00:34;;;;;;;;;;;;;;;;;;5480435;25;19956;-62
2024/04/12 01:03:05;;;;;;;;;;;;;;;;;;5480687;26;19928;-62
2024/04/12 01:05:30;;;;;;;;;;;;;;;;;;5478883;25;19935;-61
2024/04/12 01:07:55;;;;;;;;;;;;;;;;;;5495000;25;19928;-62
2024/04/12 01:10:30;;;;;;;;;;;;;;;;;;5478438;25;20414;-61
2024/04/12 01:12:55;;;;;;;;;;;;;;;;;;5459866;26;19979;-60
2024/04/12 01:15:20;;;;;;;;;;;;;;;;;;5477842;25;19939;-62
2024/04/12 01:17:46;;;;;;;;;;;;;;;;;;5479282;25;19935;-62
2024/04/12 01:20:11;;;;;;;;;;;;;;;;;;5480420;25;19935;-61
2024/04/12 01:22:36;;;;;;;;;;;;;;;;;;5478621;25;19935;-63
2024/04/12 01:25:02;;;;;;;;;;;;;;;;;;5464037;26;19932;-61
2024/04/12 01:27:31;;;;;;;;;;;;;;;;;;5473187;25;19997;-62
2024/04/12 01:29:56;;;;;;;;;;;;;;;;;;5449295;25;19928;-62
2024/04/12 01:32:21;;;;;;;;;;;;;;;;;;5448075;25;19932;-62
2024/04/12 01:34:50;;;;;;;;;;;;;;;;;;5479165;26;19967;-62
2024/04/12 01:37:20;;;;;;;;;;;;;;;;;;5475774;25;20444;-62
2024/04/12 01:39:46;;;;;;;;;;;;;;;;;;5479319;25;19928;-62
2024/04/12 01:42:12;;;;;;;;;;;;;;;;;;5475207;25;19928;-62
2024/04/12 01:44:38;;;;;;;;;;;;;;;;;;5477532;25;20391;-62
2024/04/12 01:47:03;;;;;;;;;;;;;;;;;;5455411;25;19928;-62
2024/04/12 01:49:30;;;;;;;;;;;;;;;;;;5462489;26;20365;-62
2024/04/12 01:51:56;;;;;;;;;;;;;;;;;;5467742;25;19938;-62
2024/04/12 01:54:22;;;;;;;;;;;;;;;;;;5469180;25;20495;-61
2024/04/12 01:56:47;;;;;;;;;;;;;;;;;;5461459;25;19981;-62
2024/04/12 01:59:14;;;;;;;;;;;;;;;;;;5443091;26;19936;-62
2024/04/12 02:01:40;;;;;;;;;;;;;;;;;;5463048;26;19940;-62
2024/04/12 02:04:05;;;;;;;;;;;;;;;;;;5459635;26;20256;-62
2024/04/12 02:06:33;;;;;;;;;;;;;;;;;;5470938;25;19931;-62
2024/04/12 02:08:58;;;;;;;;;;;;;;;;;;5469953;26;19935;-62
2024/04/12 02:11:23;;;;;;;;;;;;;;;;;;5467703;25;19928;-62
2024/04/12 02:13:48;;;;;;;;;;;;;;;;;;5475288;26;20025;-62
2024/04/12 02:16:13;;;;;;;;;;;;;;;;;;5469704;25;19927;-63
2024/04/12 02:18:39;;;;;;;;;;;;;;;;;;5447573;26;19939;-62
2024/04/12 02:21:10;;;;;;;;;;;;;;;;;;5463775;25;20546;-63
2024/04/12 02:23:37;;;;;;;;;;;;;;;;;;5477591;26;19928;-63
2024/04/12 02:26:02;;;;;;;;;;;;;;;;;;5463902;26;19935;-62
2024/04/12 02:28:27;;;;;;;;;;;;;;;;;;5467066;25;19960;-64
2024/04/12 02:31:00;;;;;;;;;;;;;;;;;;5475816;25;19935;-63
2024/04/12 02:33:27;;;;;;;;;;;;;;;;;;5474938;26;19927;-64
2024/04/12 02:35:53;;;;;;;;;;;;;;;;;;5476842;25;20405;-62
2024/04/12 02:38:20;;;;;;;;;;;;;;;;;;5477171;25;19935;-60
2024/04/12 02:40:46;;;;;;;;;;;;;;;;;;5470919;25;19928;-63
2024/04/12 02:43:11;;;;;;;;;;;;;;;;;;5471274;26;19999;-62
2024/04/12 02:45:36;;;;;;;;;;;;;;;;;;5454913;25;20001;-64
2024/04/12 02:48:02;;;;;;;;;;;;;;;;;;5434110;25;20294;-65
2024/04/12 02:50:27;;;;;;;;;;;;;;;;;;5470852;25;19928;-64
2024/04/12 02:52:52;;;;;;;;;;;;;;;;;;5477850;25;19965;-63
2024/04/12 02:55:18;;;;;;;;;;;;;;;;;;5478898;25;20432;-64
2024/04/12 02:57:44;;;;;;;;;;;;;;;;;;5475879;25;19993;-64
2024/04/12 03:00:21;;;;;;;;;;;;;;;;;;5476530;25;19939;-63
2024/04/12 03:02:46;;;;;;;;;;;;;;;;;;5476416;26;19928;-64
2024/04/12 03:05:11;;;;;;;;;;;;;;;;;;5470104;25;19935;-63
2024/04/12 03:07:37;;;;;;;;;;;;;;;;;;5470066;25;19932;-63
2024/04/12 03:10:06;;;;;;;;;;;;;;;;;;5477958;25;20440;-64
2024/04/12 03:12:31;;;;;;;;;;;;;;;;;;5474517;25;20001;-63
2024/04/12 03:14:56;;;;;;;;;;;;;;;;;;5462735;26;19982;-61
2024/04/12 03:17:21;;;;;;;;;;;;;;;;;;5474001;25;19940;-63
2024/04/12 03:19:46;;;;;;;;;;;;;;;;;;5459874;26;19946;-62
2024/04/12 03:22:11;;;;;;;;;;;;;;;;;;5477093;25;19952;-63
2024/04/12 03:24:37;;;;;;;;;;;;;;;;;;5462977;25;19985;-64
2024/04/12 03:27:02;;;;;;;;;;;;;;;;;;5467490;25;20368;-63
2024/04/12 03:29:27;;;;;;;;;;;;;;;;;;5463073;26;19928;-64
2024/04/12 03:31:53;;;;;;;;;;;;;;;;;;5479285;25;19928;-63
2024/04/12 03:34:18;;;;;;;;;;;;;;;;;;5443990;25;19978;-64
2024/04/12 03:41:46;;;;;;;;;;;;;;;;;;5472120;26;19927;-63
2024/04/12 03:44:11;;;;;;;;;;;;;;;;;;5480562;25;19935;-63
2024/04/12 03:46:40;;;;;;;;;;;;;;;;;;5463717;26;19936;-63
2024/04/12 03:49:06;;;;;;;;;;;;;;;;;;5473754;25;19935;-63
2024/04/12 03:51:36;;;;;;;;;;;;;;;;;;5460992;26;20401;-63
2024/04/12 03:54:11;;;;;;;;;;;;;;;;;;5475017;25;19936;-63
2024/04/12 03:56:36;;;;;;;;;;;;;;;;;;5472608;25;20519;-63
2024/04/12 03:59:01;;;;;;;;;;;;;;;;;;5480451;25;19928;-61
2024/04/12 04:01:31;;;;;;;;;;;;;;;;;;5476954;25;20370;-64
2024/04/12 04:03:57;;;;;;;;;;;;;;;;;;5480679;25;19982;-64
2024/04/12 04:06:22;;;;;;;;;;;;;;;;;;5478222;25;19971;-64
2024/04/12 04:08:51;;;;;;;;;;;;;;;;;;5468485;26;19928;-64
2024/04/12 04:11:16;;;;;;;;;;;;;;;;;;5468234;25;19935;-62
2024/04/12 04:13:42;;;;;;;;;;;;;;;;;;5465553;25;19929;-64
2024/04/12 04:16:07;;;;;;;;;;;;;;;;;;5465668;25;19936;-64
2024/04/12 04:18:32;;;;;;;;;;;;;;;;;;5477472;25;20022;-64
2024/04/12 04:20:57;;;;;;;;;;;;;;;;;;5462074;26;20409;-64
2024/04/12 04:23:23;;;;;;;;;;;;;;;;;;5467472;26;19936;-63
2024/04/12 04:25:51;;;;;;;;;;;;;;;;;;5464996;26;19975;-64
2024/04/12 04:28:16;;;;;;;;;;;;;;;;;;5471789;25;20031;-64
2024/04/12 04:30:41;;;;;;;;;;;;;;;;;;5450642;26;20302;-64
2024/04/12 04:33:12;;;;;;;;;;;;;;;;;;5468943;26;19939;-64
2024/04/12 04:35:37;;;;;;;;;;;;;;;;;;5479803;25;19934;-61
2024/04/12 04:38:02;;;;;;;;;;;;;;;;;;5480516;26;19939;-64
2024/04/12 04:40:27;;;;;;;;;;;;;;;;;;5480169;25;19934;-65
2024/04/12 04:42:54;;;;;;;;;;;;;;;;;;5466838;25;19944;-65
2024/04/12 04:45:21;;;;;;;;;;;;;;;;;;5460705;25;19997;-64
2024/04/12 04:47:46;;;;;;;;;;;;;;;;;;5444612;26;19928;-64
2024/04/12 04:50:16;;;;;;;;;;;;;;;;;;5440997;26;19935;-63
2024/04/12 04:52:41;;;;;;;;;;;;;;;;;;5443960;26;20359;-60
2024/04/12 04:55:12;;;;;;;;;;;;;;;;;;5459301;26;20392;-64
2024/04/12 04:57:43;;;;;;;;;;;;;;;;;;5480004;25;19932;-64
2024/04/12 05:00:08;;;;;;;;;;;;;;;;;;5471824;25;20529;-64
2024/04/12 05:02:34;;;;;;;;;;;;;;;;;;5480235;25;19931;-62
2024/04/12 05:05:04;;;;;;;;;;;;;;;;;;5480334;25;19928;-64
2024/04/12 05:07:29;;;;;;;;;;;;;;;;;;5479823;25;19977;-63
2024/04/12 05:09:54;;;;;;;;;;;;;;;;;;5451817;25;19937;-64
2024/04/12 05:12:20;;;;;;;;;;;;;;;;;;5447230;26;19937;-61
2024/04/12 05:14:46;;;;;;;;;;;;;;;;;;5464460;25;19936;-64
2024/04/12 05:17:15;;;;;;;;;;;;;;;;;;5465389;25;20365;-63
2024/04/12 05:19:40;;;;;;;;;;;;;;;;;;5472654;25;19928;-61
2024/04/12 05:22:06;;;;;;;;;;;;;;;;;;5478236;25;19936;-65
2024/04/12 05:24:33;;;;;;;;;;;;;;;;;;5472860;25;19928;-64
2024/04/12 05:27:01;;;;;;;;;;;;;;;;;;5467553;25;19996;-64
2024/04/12 05:29:28;;;;;;;;;;;;;;;;;;5471953;25;19932;-64
2024/04/12 05:31:56;;;;;;;;;;;;;;;;;;5473732;25;19928;-64
2024/04/12 05:34:21;;;;;;;;;;;;;;;;;;5464669;26;20417;-61
2024/04/12 05:36:47;;;;;;;;;;;;;;;;;;5457564;26;19997;-63
2024/04/12 05:39:12;;;;;;;;;;;;;;;;;;5454228;26;19929;-64
2024/04/12 05:41:38;;;;;;;;;;;;;;;;;;5450633;26;19944;-63
2024/04/12 05:44:03;;;;;;;;;;;;;;;;;;5476099;25;19928;-64
2024/04/12 05:46:28;;;;;;;;;;;;;;;;;;5468364;25;20224;-64
2024/04/12 05:48:53;;;;;;;;;;;;;;;;;;5473619;25;20354;-63
2024/04/12 05:51:18;;;;;;;;;;;;;;;;;;5455465;25;19936;-62
2024/04/12 05:53:51;;;;;;;;;;;;;;;;;;5482502;25;19935;-62
2024/04/12 05:56:25;;;;;;;;;;;;;;;;;;5476847;25;19977;-62
2024/04/12 05:58:51;;;;;;;;;;;;;;;;;;5477050;25;20464;-62
2024/04/12 06:01:16;;;;;;;;;;;;;;;;;;5490836;25;19947;-64
2024/04/12 06:03:48;;;;;;;;;;;;;;;;;;5481269;25;19928;-62
2024/04/12 06:06:13;;;;;;;;;;;;;;;;;;5473928;25;19928;-63
2024/04/12 06:08:38;;;;;;;;;;;;;;;;;;5466935;25;20319;-63
2024/04/12 06:11:08;;;;;;;;;;;;;;;;;;5453011;25;19928;-62
2024/04/12 06:13:33;;;;;;;;;;;;;;;;;;5462409;25;20410;-65
2024/04/12 06:15:58;;;;;;;;;;;;;;;;;;5474382;25;19928;-65
2024/04/12 06:18:23;;;;;;;;;;;;;;;;;;5476902;25;19928;-65
2024/04/12 06:20:48;;;;;;;;;;;;;;;;;;5482928;25;20589;-65
2024/04/12 06:23:19;;;;;;;;;;;;;;;;;;5477564;25;20018;-66
2024/04/12 06:25:44;;;;;;;;;;;;;;;;;;5470661;25;19973;-66
2024/04/12 06:28:11;;;;;;;;;;;;;;;;;;5476601;25;19940;-67
2024/04/12 06:30:37;;;;;;;;;;;;;;;;;;5457110;25;19928;-67
2024/04/12 06:33:06;;;;;;;;;;;;;;;;;;5442803;26;20035;-67
2024/04/12 06:35:31;;;;;;;;;;;;;;;;;;5472679;26;19928;-66
2024/04/12 06:37:58;;;;;;;;;;;;;;;;;;5471569;25;20406;-66
2024/04/12 06:40:28;;;;;;;;;;;;;;;;;;5478273;25;19940;-65
2024/04/12 06:42:53;;;;;;;;;;;;;;;;;;5479159;25;19932;-65
2024/04/12 06:45:20;;;;;;;;;;;;;;;;;;5478008;25;19928;-64
2024/04/12 06:47:48;;;;;;;;;;;;;;;;;;5471656;25;19935;-65
2024/04/12 06:50:13;;;;;;;;;;;;;;;;;;5462822;25;19928;-65
2024/04/12 06:52:40;;;;;;;;;;;;;;;;;;5462895;25;19928;-65
2024/04/12 06:55:07;;;;;;;;;;;;;;;;;;5477669;25;20361;-65
2024/04/12 06:57:32;;;;;;;;;;;;;;;;;;5466766;25;19961;-65
2024/04/12 06:59:58;;;;;;;;;;;;;;;;;;5471824;25;19928;-65
2024/04/12 07:02:26;;;;;;;;;;;;;;;;;;5477611;25;19936;-65
2024/04/12 07:04:54;;;;;;;;;;;;;;;;;;5477681;25;19935;-66
2024/04/12 07:07:22;;;;;;;;;;;;;;;;;;5481281;25;19935;-64
2024/04/12 07:09:48;;;;;;;;;;;;;;;;;;5481447;25;19928;-66
2024/04/12 07:12:14;;;;;;;;;;;;;;;;;;5480852;25;19928;-65
2024/04/12 07:14:41;;;;;;;;;;;;;;;;;;5481839;25;19932;-65
2024/04/12 07:17:19;;;;;;;;;;;;;;;;;;5480219;25;19960;-66
2024/04/12 07:19:49;;;;;;;;;;;;;;;;;;5480457;25;20015;-66
2024/04/12 07:22:18;;;;;;;;;;;;;;;;;;5467687;25;19928;-65
2024/04/12 07:24:43;;;;;;;;;;;;;;;;;;5462135;25;20304;-66
2024/04/12 07:27:14;;;;;;;;;;;;;;;;;;5475542;25;20300;-65
2024/04/12 07:29:43;;;;;;;;;;;;;;;;;;5504900;25;19932;-66
2024/04/12 07:32:08;;;;;;;;;;;;;;;;;;5497224;25;19932;-66
2024/04/12 07:34:37;;;;;;;;;;;;;;;;;;5468494;25;19932;-65
2024/04/12 07:37:06;;;;;;;;;;;;;;;;;;5480812;25;19928;-65
2024/04/12 07:39:31;;;;;;;;;;;;;;;;;;5516991;25;20408;-65
2024/04/12 07:41:57;;;;;;;;;;;;;;;;;;5485054;25;20349;-65
2024/04/12 07:44:24;;;;;;;;;;;;;;;;;;5489144;25;19932;-66
2024/04/12 07:46:49;;;;;;;;;;;;;;;;;;5493834;25;19928;-66
2024/04/12 07:49:14;;;;;;;;;;;;;;;;;;5497312;25;19943;-66
2024/04/12 07:51:39;;;;;;;;;;;;;;;;;;5488720;25;20460;-66
2024/04/12 07:54:04;;;;;;;;;;;;;;;;;;5492564;25;19928;-65
2024/04/12 07:56:37;;;;;;;;;;;;;;;;;;5480860;25;19927;-65
2024/04/12 07:59:13;;;;;;;;;;;;;;;;;;5500744;25;19940;-65
2024/04/12 08:01:38;;;;;;;;;;;;;;;;;;5486952;26;19929;-66
2024/04/12 08:04:15;;;;;;;;;;;;;;;;;;5484577;25;19928;-66
2024/04/12 08:12:17;;;;;;;;;;;;;;;;;;5444772;26;19933;-65
2024/04/12 08:15:06;;;;;;;;;;;;;;;;;;5450350;26;19928;-64
2024/04/12 08:17:39;;;;;;;;;;;;;;;;;;5474869;26;19928;-64
2024/04/12 08:20:13;;;;;;;;;;;;;;;;;;5490060;25;20284;-66
2024/04/12 08:22:38;;;;;;;;;;;;;;;;;;5509616;25;20274;-66
2024/04/12 08:25:03;;;;;;;;;;;;;;;;;;5480383;25;20327;-67
2024/04/12 08:27:30;;;;;;;;;;;;;;;;;;5465514;26;19931;-66
2024/04/12 08:29:55;;;;;;;;;;;;;;;24.78;nan;102046.81;5496807;25;19928;-66
2024/04/12 08:32:33;;;;;;;;;;;;;;;25.12;nan;102042.22;5499519;25;20007;-65
2024/04/12 08:34:59;;;;;;;;;;;;;;;25.36;nan;102053.41;5473045;26;19967;-67
2024/04/12 08:37:30;;;;;;;;;;;;;;;25.54;nan;102041.88;5512945;26;19936;-66
2024/04/12 08:39:57;;;;;;;;;;;;;;;25.71;nan;102044.94;5517625;25;19984;-65
2024/04/12 08:42:28;;;;;;;;;;;;;;;26.01;nan;102046.06;5514835;25;19932;-65
2024/04/12 08:44:56;;;;;;;;;;;;;;;26.14;nan;102055.16;5509390;26;20260;-65
2024/04/12 08:50:03;;;;;;;;;;;;;;;26.79;nan;102057.59;5517775;25;19946;-65
2024/04/12 08:52:42;;;;;;;;;;;;;;;27.14;nan;102049.75;5479651;25;19940;-65
2024/04/12 08:55:13;;;;;;;;;;;;;;;27.67;nan;102070.03;5495558;25;19936;-64
2024/04/12 08:57:41;;;;;;;;;;;;;;;27.42;nan;102060.13;5508810;25;20000;-64
2024/04/12 09:00:08;;;;;;;;;;;;;;;27.05;nan;102057.38;5510910;25;20344;-65
2024/04/12 09:02:40;;;;;;;;;;;;;;;27.15;nan;102066.84;5504256;26;19928;-64
2024/04/12 09:05:06;;;;;;;;;;;;;;;27.16;nan;102063.94;5511984;25;19995;-64
2024/04/12 09:07:35;;;;;;;;;;;;;;;27.24;nan;102055.50;5500014;25;20240;-64
2024/04/12 09:10:00;;;;;;;;;;;;;;;28.03;nan;102069.19;5509681;25;19934;-64
2024/04/12 09:12:27;;;;;;;;;;;;;;;28.55;nan;102064.00;5481002;25;20379;-64
2024/04/12 09:14:53;;;;;;;;;;;;;;;28.84;nan;102064.16;5486906;25;19931;-64
2024/04/12 09:17:24;;;;;;;;;;;;;;;29.34;nan;102047.31;5500474;26;20365;-64
2024/04/12 09:19:50;;;;;;;;;;;;;;;29.39;nan;102044.69;5499326;25;19961;-64
2024/04/12 09:22:17;;;;;;;;;;;;;;;28.91;nan;102043.09;5494561;26;19939;-64
2024/04/12 09:24:44;;;;;;;;;;;;;;;29.01;nan;102043.31;5459989;26;19935;-64
2024/04/12 09:27:13;;;;;;;;;;;;;;;29.26;nan;102047.69;5510716;25;19935;-64
2024/04/12 09:29:44;;;;;;;;;;;;;;;29.65;nan;102047.91;5484814;26;19994;-64
2024/04/12 09:34:58;;;;;;;;;;;;;;;30.49;nan;102058.22;5485515;26;19996;-65
2024/04/12 09:37:29;;;;;;;;;;;;;;;30.63;nan;102053.22;5485240;26;19927;-64
2024/04/12 09:42:28;;;;;;;;;;;;;;;31.47;nan;102074.97;5488803;25;19938;-64
2024/04/12 09:44:59;;;;;;;;;;;;;;;;;;5473866;26;19932;-63
2024/04/12 10:39:49;;;;;;;;;;;;;;;32.67;nan;102043.84;5498082;26;20452;-64
2024/04/12 10:42:15;;;;;;;;;;;;;;;32.77;nan;102043.09;5510851;25;19932;-65
2024/04/12 10:44:49;;;;;;;;;;;;;;;33.16;nan;102046.34;5506605;25;19935;-65
2024/04/12 10:47:20;;;;;;;;;;;;;;;33.69;nan;102037.25;5496720;25;19928;-65
2024/04/12 10:49:45;;;;;;;;;;;;;;;34.01;nan;102046.03;5482092;26;20241;-65
2024/04/12 10:52:16;;;;;;;;;;;;;;;33.63;nan;102036.38;5468843;25;19927;-65
2024/04/12 10:54:47;;;;;;;;;;;;;;;33.90;nan;102038.09;5454400;26;19998;-65
2024/04/12 10:57:13;;;;;;;;;;;;;;;33.96;nan;102042.50;5457497;26;19959;-65
2024/04/12 10:59:42;;;;;;;;;;;;;;;34.16;nan;102028.00;5489355;26;21202;-65
2024/04/12 11:02:10;;;;;;;;;;;;;;;34.29;nan;102029.34;5517366;25;19996;-65
2024/04/12 11:05:05;;;;;;;;;;;;;;;34.56;nan;102018.06;5482567;25;20350;-65
2024/04/12 11:07:21;;;;;;;;;;;;;;;34.66;nan;102018.09;5489333;25;19934;-65
2024/04/12 11:09:57;;;;;;;;;;;;;;;34.57;nan;102015.03;5476338;26;19999;-65
2024/04/12 11:12:24;;;;;;;;;;;;;;;34.46;nan;102011.47;5500142;25;19927;-64
2024/04/12 11:15:00;;;;;;;;;;;;;;;34.47;nan;102010.38;5487508;25;20001;-64
2024/04/12 11:31:16;;;;;;;;;;;;;;;35.05;nan;101998.97;5495536;25;20249;-64
2024/04/12 11:33:52;;;;;;;;;;;;;;;34.82;nan;101989.44;5498440;25;19932;-64
2024/04/12 11:36:20;;;;;;;;;;;;;;;35.14;nan;102002.00;5510054;25;19932;-63
2024/04/12 11:38:47;;;;;;;;;;;;;;;35.52;nan;101999.59;5495258;25;19935;-63
2024/04/12 11:41:15;;;;;;;;;;;;;;;35.84;nan;102001.84;5496396;25;20365;-63
2024/04/12 11:43:41;;;;;;;;;;;;;;;35.83;nan;101996.66;5508344;25;20386;-64
2024/04/12 11:46:08;;;;;;;;;;;;;;;35.36;nan;101987.03;5516604;25;19934;-64
2024/04/12 11:48:33;;;;;;;;;;;;;;;34.60;nan;101995.28;5494277;25;19940;-64
2024/04/12 11:50:59;;;;;;;;;;;;;;;33.79;nan;101994.16;5477748;25;19982;-64
2024/04/12 11:53:25;;;;;;;;;;;;;;;32.84;nan;101991.63;5504382;25;19932;-63
2024/04/12 11:55:50;;;;;;;;;;;;;;;32.11;nan;101992.22;5518291;25;20264;-63
2024/04/12 11:58:15;;;;;;;;;;;;;;;30.82;nan;101978.16;5492374;25;19997;-63
2024/04/12 12:00:41;;;;;;;;;;;;;;;31.18;nan;101978.66;5513500;25;20392;-63
2024/04/12 12:03:07;;;;;;;;;;;;;;;30.67;nan;101981.50;5483023;25;19936;-63
2024/04/12 12:05:40;;;;;;;;;;;;;;;29.56;nan;101963.00;5478599;26;19931;-65
2024/04/12 12:08:05;;;;;;;;;;;;;;;;;;5458720;26;19928;-63
2024/04/12 12:10:34;;;;;;;;;;;;;;;28.47;nan;101960.97;5477425;26;19935;-63
2024/04/12 12:13:01;;;;;;;;;;;;;;;28.11;nan;101948.38;5488900;25;19931;-63
2024/04/12 12:15:26;;;;;;;;;;;;;;;27.26;nan;101944.75;5487923;25;20276;-62
2024/04/12 12:17:52;;;;;;;;;;;;;;;26.63;nan;101940.44;5481075;26;19939;-63
2024/04/12 12:20:18;;;;;;;;;;;;;;;25.80;nan;101930.66;5508779;25;19939;-63
2024/04/12 12:22:43;;;;;;;;;;;;;;;25.37;nan;101927.81;5495530;25;20209;-62
2024/04/12 12:25:08;;;;;;;;;;;;;;;25.05;nan;101914.19;5477209;26;20369;-63
2024/04/12 12:27:34;;;;;;;;;;;;;;;24.59;nan;101918.66;5470528;25;19936;-62
2024/04/12 12:30:02;;;;;;;;;;;;;;;23.59;nan;101912.34;5483442;25;19929;-62
2024/04/12 12:32:31;;;;;;;;;;;;;;;22.80;nan;101896.69;5479392;25;19932;-62
2024/04/12 12:34:57;;;;;;;;;;;;;;;22.55;nan;101893.63;5489010;25;19927;-62
2024/04/12 12:37:24;;;;;;;;;;;;;;;;;;5492559;25;20334;-65
2024/04/12 12:39:50;;;;;;;;;;;;;;;;;;5489249;25;19934;-65
2024/04/12 12:42:16;;;;;;;;;;;;;;;;;;5460028;25;19928;-64
2024/04/12 12:44:43;;;;;;;;;;;;;;;;;;5483336;25;19996;-65
2024/04/12 12:47:09;;;;;;;;;;;;;;;;;;5473832;25;19936;-65
2024/04/12 12:49:46;;;;;;;;;;;;;;;;;;5457142;26;19935;-65
2024/04/12 12:52:11;;;;;;;;;;;;;;;;;;5480772;25;19928;-65
2024/04/12 12:54:36;;;;;;;;;;;;;;;;;;5490912;26;19928;-65
2024/04/12 12:57:01;;;;;;;;;;;;;;;;;;5459721;26;19927;-65
2024/04/12 12:59:28;;;;;;;;;;;;;;;;;;5460597;25;20349;-65
2024/04/12 13:01:53;;;;;;;;;;;;;;;;;;5461447;26;19953;-65
2024/04/12 13:04:18;;;;;;;;;;;;;;;;;;5472789;26;19940;-65
2024/04/12 13:06:43;;;;;;;;;;;;;;;;;;5468614;26;19929;-64
2024/04/12 13:09:08;;;;;;;;;;;;;;;;;;5462632;25;19947;-65
2024/04/12 13:11:33;;;;;;;;;;;;;;;;;;5448751;25;20187;-65
2024/04/12 13:13:59;;;;;;;;;;;;;;;;;;5456996;26;19965;-62
2024/04/12 13:16:24;;;;;;;;;;;;;;;;;;5481244;25;19929;-62
2024/04/12 13:18:52;;;;;;;;;;;;;;;;;;5453506;26;19944;-62
2024/04/12 13:21:17;;;;;;;;;;;;;;;;;;5469414;26;20269;-62
2024/04/12 13:23:42;;;;;;;;;;;;;;;;;;5482602;26;19992;-62
2024/04/12 13:26:08;;;;;;;;;;;;;;;;;;5488987;26;19927;-62
2024/04/12 13:28:33;;;;;;;;;;;;;;;;;;5465567;25;19956;-62
2024/04/12 13:30:58;;;;;;;;;;;;;;;;;;5467814;26;19940;-62
2024/04/12 13:33:23;;;;;;;;;;;;;;;;;;5439462;26;20022;-63
2024/04/12 13:35:48;;;;;;;;;;;;;;;;;;5446774;26;19996;-64
2024/04/12 13:38:13;;;;;;;;;;;;;;;;;;5418220;26;19936;-64
2024/04/12 13:40:40;;;;;;;;;;;;;;;;;;5423110;26;19933;-63
2024/04/12 13:43:05;;;;;;;;;;;;;;;;;;5450513;26;19934;-63
2024/04/12 13:50:58;;;;;;;;;;;;;;;;;;5456636;25;20455;-63
2024/04/12 13:53:32;;;;;;;;;;;;;;;;;;5465665;26;19928;-64
2024/04/12 13:56:16;;;;;;;;;;;;;;;;;;5487036;26;19928;-63
2024/04/12 13:58:42;;;;;;;;;;;;;;;;;;5495342;25;20317;-63
2024/04/12 14:01:07;;;;;;;;;;;;;;;;;;5490815;25;20307;-63
2024/04/12 14:03:32;;;;;;;;;;;;;;;;;;5459587;26;19936;-64
2024/04/12 14:05:57;;;;;;;;;;;;;;;;;;5405768;26;19928;-64
2024/04/12 14:08:28;;;;;;;;;;;;;;;;;;5419229;26;19935;-64
2024/04/12 14:10:53;;;;;;;;;;;;;;;;;;5429906;26;19960;-63
2024/04/12 14:13:19;;;;;;;;;;;;;;;;;;5432919;26;19935;-63
2024/04/12 14:15:44;;;;;;;;;;;;;;;;;;5412868;26;20258;-64
2024/04/12 14:18:09;;;;;;;;;;;;;;;;;;5414494;26;19937;-64
2024/04/12 14:20:34;;;;;;;;;;;;;;;;;;5431140;26;20330;-63
2024/04/12 14:23:00;;;;;;;;;;;;;;;;;;5449838;26;19927;-63
2024/04/12 14:25:28;;;;;;;;;;;;;;;;;;5504550;25;20371;-63
2024/04/12 14:27:53;;;;;;;;;;;;;;;;;;5484154;25;20277;-63
2024/04/12 14:30:18;;;;;;;;;;;;;;;;;;5465464;25;20406;-64
2024/04/12 14:32:48;;;;;;;;;;;;;;;;;;5467714;26;20675;-64
2024/04/12 14:35:13;;;;;;;;;;;;;;;;;;5473079;25;19968;-63
2024/04/12 14:37:38;;;;;;;;;;;;;;;;;;5498795;25;19977;-63
2024/04/12 14:40:06;;;;;;;;;;;;;;;;;;5487695;25;19927;-64
2024/04/12 14:42:31;;;;;;;;;;;;;;;;;;5510389;25;19995;-64
2024/04/12 14:45:06;;;;;;;;;;;;;;;;;;5507678;25;20238;-63
2024/04/12 14:47:31;;;;;;;;;;;;;;;;;;5515355;25;19927;-63
2024/04/12 14:49:56;;;;;;;;;;;;;;;;;;5496036;25;20003;-64
2024/04/12 14:52:22;;;;;;;;;;;;;;;;;;5499543;25;19939;-63
2024/04/12 14:54:47;;;;;;;;;;;;;;;;;;5488354;25;20317;-64
2024/04/12 14:57:12;;;;;;;;;;;;;;;;;;5467274;25;19940;-63
2024/04/12 14:59:37;;;;;;;;;;;;;;;;;;5471998;25;20431;-63
2024/04/12 15:02:03;;;;;;;;;;;;;;;;;;5494118;25;20471;-63
2024/04/12 15:48:12;;;;;;;;;;;;;;;;;;5475339;25;19992;-63
2024/04/12 15:50:37;;;;;;;;;;;;;;;;;;5491073;25;19928;-63
2024/04/12 15:53:18;;;;;;;;;;;;;;;;;;5495234;25;19935;-63
2024/04/12 16:11:56;;;;;;;;;;;;;;;;;;5480466;25;20338;-64
2024/04/12 16:14:21;;;;;;;;;;;;;;;;;;5482670;25;19968;-63
2024/04/12 16:16:48;;;;;;;;;;;;;;;;;;5478189;25;20597;-63
2024/04/12 16:19:13;;;;;;;;;;;;;;;;;;5469106;25;20021;-63
2024/04/12 16:21:39;;;;;;;;;;;;;;;;;;5481524;25;19972;-63
2024/04/12 16:24:04;;;;;;;;;;;;;;;;;;5453967;25;19977;-63
2024/04/12 16:26:29;;;;;;;;;;;;;;;;;;5488202;26;19997;-63
2024/04/12 16:28:54;;;;;;;;;;;;;;;;;;5486410;26;19928;-64
2024/04/12 16:31:19;;;;;;;;;;;;;;;;;;5482068;26;19931;-63
2024/04/12 16:33:44;;;;;;;;;;;;;;;;;;5479000;26;19938;-63
2024/04/12 16:36:09;;;;;;;;;;;;;;;;;;5466370;25;19929;-64
2024/04/12 16:38:34;;;;;;;;;;;;;;;;;;5473114;26;19928;-63
2024/04/12 16:40:59;;;;;;;;;;;;;;;;;;5497159;25;19931;-63
2024/04/12 16:43:24;;;;;;;;;;;;;;;;;;5500469;26;19928;-63
2024/04/12 16:45:50;;;;;;;;;;;;;;;;;;5493973;25;19994;-62
2024/04/12 16:48:15;;;;;;;;;;;;;;;;;;5494354;25;20385;-62
2024/04/12 16:50:40;;;;;;;;;;;;;;;;;;5490353;25;20406;-63
2024/04/12 16:53:05;;;;;;;;;;;;;;;;;;5516546;25;19984;-63
2024/04/12 16:55:30;;;;;;;;;;;;;;;;;;5515597;25;19978;-63
2024/04/12 16:57:59;;;;;;;;;;;;;;;;;;5500889;25;19936;-63
2024/04/12 17:00:24;;;;;;;;;;;;;;;;;;5514332;25;19931;-63
2024/04/12 17:02:49;;;;;;;;;;;;;;;;;;5486441;26;19939;-63
2024/04/12 17:05:14;;;;;;;;;;;;;;;;;;5492543;25;19996;-63
2024/04/12 17:07:40;;;;;;;;;;;;;;;;;;5503433;25;19928;-63
2024/04/12 17:10:05;;;;;;;;;;;;;;;;;;5500137;25;19935;-66
2024/04/12 17:12:30;;;;;;;;;;;;;;;;;;5502301;25;19932;-62
2024/04/12 17:14:55;;;;;;;;;;;;;;;;;;5499057;25;19927;-63
2024/04/12 17:17:20;;;;;;;;;;;;;;;;;;5488997;25;20272;-63
2024/04/12 17:19:45;;;;;;;;;;;;;;;;;;5477723;25;20582;-62
2024/04/12 17:22:10;;;;;;;;;;;;;;;;;;5514726;25;19927;-64
2024/04/12 17:24:37;;;;;;;;;;;;;;;;;;5505217;25;19955;-63
2024/04/12 17:27:02;;;;;;;;;;;;;;;;;;5495514;25;19927;-63
2024/04/12 17:29:27;;;;;;;;;;;;;;;;;;5484674;25;19932;-62
2024/04/12 17:31:54;;;;;;;;;;;;;;;;;;5489464;25;20403;-63
2024/04/12 17:34:20;;;;;;;;;;;;;;;;;;5486339;25;19943;-63
2024/04/12 17:36:46;;;;;;;;;;;;;;;;;;5490552;26;19939;-63
2024/04/12 17:39:11;;;;;;;;;;;;;;;;;;5479247;25;20000;-63
2024/04/12 17:41:39;;;;;;;;;;;;;;;;;;5493785;25;19932;-65
2024/04/12 17:44:05;;;;;;;;;;;;;;;;;;5493295;25;19934;-63
2024/04/12 17:46:30;;;;;;;;;;;;;;;;;;5466252;25;19928;-63
2024/04/12 17:48:57;;;;;;;;;;;;;;;;;;5482257;26;19941;-63
2024/04/12 17:51:23;;;;;;;;;;;;;;;;;;5469514;25;19962;-63
2024/04/12 17:53:48;;;;;;;;;;;;;;;;;;5462837;25;19936;-63
2024/04/12 17:56:14;;;;;;;;;;;;;;;;;;5431282;25;19932;-63
2024/04/12 17:58:39;;;;;;;;;;;;;;;;;;5423227;26;20354;-63
2024/04/12 18:01:04;;;;;;;;;;;;;;;;;;5451850;25;19984;-63
2024/04/12 18:03:29;;;;;;;;;;;;;;;;;;5455279;26;19928;-63
2024/04/12 18:05:54;;;;;;;;;;;;;;;;;;5476031;26;19928;-63
2024/04/12 18:08:19;;;;;;;;;;;;;;;;;;5493145;25;20326;-63
2024/04/12 18:10:46;;;;;;;;;;;;;;;;;;5469316;25;21438;-63
2024/04/12 18:13:11;;;;;;;;;;;;;;;;;;5481241;25;19935;-63
2024/04/12 18:15:36;;;;;;;;;;;;;;;;;;5481262;25;19928;-63
2024/04/12 18:18:01;;;;;;;;;;;;;;;;;;5466350;26;19939;-63
2024/04/12 18:20:26;;;;;;;;;;;;;;;;;;5474008;25;19935;-63
2024/04/12 18:22:52;;;;;;;;;;;;;;;;;;5477367;25;19931;-63
2024/04/12 18:25:17;;;;;;;;;;;;;;;;;;5477714;25;20250;-64